Time;durP1;ratioP1;P1;durP2;ratioP2;P2;SDS_P1;SDS_P2;PMS_P1;PMS_P2;Temp;Humidity;BMP_temperature;BMP_pressure;BME280_temperature;BME280_humidity;BME280_pressure;Samples;Min_cycle;Max_cycle;Signal;HPM_P1;HPM_P2
2020/12/28 00:02:23;;;;;;;6.10;4.10;;;1.60;99.90;;;;;;5049397;28;20303;-61
2020/12/28 00:04:51;;;;;;;6.10;5.13;;;1.60;99.90;;;;;;5044119;28;20451;-61
2020/12/28 00:07:17;;;;;;;8.13;4.47;;;1.60;99.90;;;;;;5026147;28;20442;-62
2020/12/28 00:09:43;;;;;;;5.90;3.83;;;1.60;99.90;;;;;;5041215;28;20417;-62
2020/12/28 00:12:08;;;;;;;4.73;4.00;;;1.60;99.90;;;;;;5045584;28;20196;-64
2020/12/28 00:14:34;;;;;;;4.63;3.87;;;1.60;99.90;;;;;;5046438;28;20899;-61
2020/12/28 00:17:00;;;;;;;5.03;4.03;;;1.60;99.90;;;;;;5046423;28;20411;-62
2020/12/28 00:19:25;;;;;;;6.53;4.23;;;1.60;99.90;;;;;;5039402;28;20189;-60
2020/12/28 00:21:51;;;;;;;7.80;4.67;;;1.50;99.90;;;;;;5044565;28;20583;-64
2020/12/28 00:24:18;;;;;;;7.33;4.83;;;1.60;99.90;;;;;;5035798;28;20235;-62
2020/12/28 00:26:45;;;;;;;5.80;3.80;;;1.50;99.90;;;;;;5041867;28;20173;-64
2020/12/28 00:29:16;;;;;;;6.30;4.20;;;1.50;99.90;;;;;;5025491;28;20433;-60
2020/12/28 00:31:43;;;;;;;5.83;5.00;;;1.40;99.90;;;;;;5042864;28;20545;-61
2020/12/28 00:34:09;;;;;;;6.40;4.43;;;1.40;99.90;;;;;;5044448;28;20517;-62
2020/12/28 00:36:35;;;;;;;6.57;5.00;;;1.40;99.90;;;;;;5044721;28;20918;-63
2020/12/28 00:39:02;;;;;;;6.10;4.80;;;1.40;99.90;;;;;;5026585;28;20514;-60
2020/12/28 00:41:28;;;;;;;6.67;5.10;;;1.40;99.90;;;;;;5042831;28;20233;-61
2020/12/28 00:43:56;;;;;;;4.83;3.90;;;1.40;99.90;;;;;;5012415;28;20446;-67
2020/12/28 00:46:21;;;;;;;4.63;3.63;;;1.40;99.90;;;;;;5030658;28;21134;-60
2020/12/28 00:48:47;;;;;;;4.93;4.00;;;1.40;99.90;;;;;;5043978;28;20433;-61
2020/12/28 00:51:14;;;;;;;6.80;4.63;;;1.40;99.90;;;;;;5035263;28;20586;-61
2020/12/28 00:53:41;;;;;;;6.13;4.17;;;1.40;99.90;;;;;;5021927;28;20435;-66
2020/12/28 00:56:07;;;;;;;13.70;5.00;;;1.40;99.90;;;;;;5031136;28;21004;-60
2020/12/28 00:58:36;;;;;;;4.20;3.80;;;1.40;99.90;;;;;;5029143;28;20420;-60
2020/12/28 01:01:11;;;;;;;7.07;4.00;;;1.40;99.90;;;;;;5044200;28;20202;-62
2020/12/28 01:03:36;;;;;;;4.63;3.90;;;1.40;99.90;;;;;;5040562;28;20528;-60
2020/12/28 01:06:08;;;;;;;6.50;4.27;;;1.30;99.90;;;;;;5021015;28;20540;-64
2020/12/28 01:08:39;;;;;;;5.10;3.53;;;1.30;99.90;;;;;;5034763;28;20178;-62
2020/12/28 01:11:04;;;;;;;6.30;4.03;;;1.40;99.90;;;;;;5029256;28;20432;-66
2020/12/28 01:13:30;;;;;;;3.80;3.43;;;1.40;99.90;;;;;;5035968;28;20470;-63
2020/12/28 01:15:55;;;;;;;5.67;3.50;;;1.40;99.90;;;;;;5038324;28;20182;-63
2020/12/28 01:18:22;;;;;;;5.40;4.30;;;1.40;99.90;;;;;;5041457;28;20232;-62
2020/12/28 01:20:48;;;;;;;4.27;3.20;;;1.40;99.90;;;;;;5043880;28;20189;-64
2020/12/28 01:23:14;;;;;;;5.73;3.57;;;1.40;99.90;;;;;;5060491;28;20721;-62
2020/12/28 01:25:40;;;;;;;7.30;3.33;;;1.40;99.90;;;;;;5044490;28;20996;-60
2020/12/28 01:28:05;;;;;;;3.60;3.03;;;1.40;99.90;;;;;;5059647;28;20211;-60
2020/12/28 01:30:31;;;;;;;3.33;2.83;;;1.40;99.90;;;;;;5033828;28;20189;-61
2020/12/28 01:32:56;;;;;;;4.00;2.60;;;1.40;99.90;;;;;;5026948;28;20330;-60
2020/12/28 01:35:22;;;;;;;3.90;2.73;;;1.50;99.90;;;;;;5047287;28;20264;-66
2020/12/28 01:37:48;;;;;;;3.13;2.80;;;1.50;99.90;;;;;;5027046;28;20200;-60
2020/12/28 01:40:15;;;;;;;8.37;2.80;;;1.50;99.90;;;;;;5053373;28;20190;-63
2020/12/28 01:42:40;;;;;;;3.20;2.73;;;1.50;99.90;;;;;;5063289;28;20439;-62
2020/12/28 01:45:06;;;;;;;2.53;2.33;;;1.50;99.90;;;;;;5043655;28;20533;-63
2020/12/28 01:47:32;;;;;;;5.37;3.17;;;1.50;99.90;;;;;;5047968;28;20177;-63
2020/12/28 01:50:00;;;;;;;3.03;2.73;;;1.50;99.90;;;;;;5044896;28;20543;-61
2020/12/28 01:52:26;;;;;;;4.17;2.87;;;1.50;99.90;;;;;;5046629;28;20219;-62
2020/12/28 01:54:52;;;;;;;2.37;2.17;;;1.50;99.90;;;;;;5033659;28;20538;-62
2020/12/28 01:57:18;;;;;;;2.80;2.50;;;1.50;99.90;;;;;;5047843;28;20188;-61
2020/12/28 01:59:44;;;;;;;2.63;2.40;;;1.50;99.90;;;;;;5065567;28;20429;-61
2020/12/28 02:02:10;;;;;;;2.93;2.70;;;1.50;99.90;;;;;;5032710;28;20646;-63
2020/12/28 02:04:36;;;;;;;2.67;2.40;;;1.50;99.90;;;;;;5053010;28;20476;-62
2020/12/28 02:07:06;;;;;;;2.60;2.40;;;1.50;99.90;;;;;;5044468;28;20427;-64
2020/12/28 02:09:31;;;;;;;2.60;2.40;;;1.50;99.90;;;;;;5037091;28;20438;-64
2020/12/28 02:11:57;;;;;;;3.60;2.30;;;1.50;99.90;;;;;;5051485;28;20447;-64
2020/12/28 02:14:23;;;;;;;2.00;1.90;;;1.50;99.90;;;;;;5052499;28;20501;-60
2020/12/28 02:16:48;;;;;;;2.33;2.00;;;1.50;99.90;;;;;;5053000;28;20177;-61
2020/12/28 02:19:15;;;;;;;3.80;2.20;;;1.50;99.90;;;;;;5037657;28;20195;-61
2020/12/28 02:21:41;;;;;;;3.80;2.60;;;1.50;99.90;;;;;;5037578;28;20201;-60
2020/12/28 02:24:06;;;;;;;2.50;2.07;;;1.50;99.90;;;;;;5048526;28;20885;-60
2020/12/28 02:26:32;;;;;;;2.20;2.00;;;1.40;99.90;;;;;;5051837;28;20239;-62
2020/12/28 02:28:57;;;;;;;2.17;1.87;;;1.40;99.90;;;;;;5051902;28;20225;-60
2020/12/28 02:31:24;;;;;;;1.60;1.50;;;1.40;99.90;;;;;;5028835;28;20740;-61
2020/12/28 02:33:50;;;;;;;1.90;1.80;;;1.40;99.90;;;;;;5042090;28;20200;-60
2020/12/28 02:36:15;;;;;;;1.80;1.70;;;1.40;99.90;;;;;;5045345;28;20751;-64
2020/12/28 02:38:41;;;;;;;2.67;1.60;;;1.40;99.90;;;;;;5039765;28;20192;-60
2020/12/28 02:41:07;;;;;;;1.77;1.67;;;1.40;99.90;;;;;;5034687;28;20440;-60
2020/12/28 02:43:33;;;;;;;1.60;1.50;;;1.40;99.90;;;;;;5051502;28;20674;-60
2020/12/28 02:45:59;;;;;;;1.80;1.70;;;1.30;99.90;;;;;;5033929;28;20579;-61
2020/12/28 02:48:25;;;;;;;1.47;1.40;;;1.30;99.90;;;;;;5048874;28;20576;-65
2020/12/28 02:50:51;;;;;;;1.70;1.60;;;1.30;99.90;;;;;;5040418;28;20265;-63
2020/12/28 02:53:17;;;;;;;1.90;1.80;;;1.30;99.90;;;;;;5032496;28;20416;-64
2020/12/28 02:55:43;;;;;;;13.40;7.40;;;1.30;99.90;;;;;;5035060;28;20474;-61
2020/12/28 02:58:08;;;;;;;1.80;1.70;;;1.40;99.90;;;;;;5043873;28;20907;-64
2020/12/28 03:00:34;;;;;;;2.40;1.83;;;1.40;99.90;;;;;;5046759;28;20194;-61
2020/12/28 03:03:00;;;;;;;1.50;1.40;;;1.40;99.90;;;;;;5051446;28;20177;-60
2020/12/28 03:05:25;;;;;;;1.30;1.20;;;1.40;99.90;;;;;;5028110;28;20513;-60
2020/12/28 03:07:51;;;;;;;1.27;1.07;;;1.50;99.90;;;;;;5051674;28;20209;-61
2020/12/28 03:10:17;;;;;;;1.00;1.00;;;1.50;99.90;;;;;;5052203;28;20220;-61
2020/12/28 03:12:42;;;;;;;1.13;1.13;;;1.50;99.90;;;;;;5024202;28;20202;-64
2020/12/28 03:15:08;;;;;;;1.40;1.27;;;1.50;99.90;;;;;;5029632;28;20469;-60
2020/12/28 03:17:34;;;;;;;1.67;1.30;;;1.50;99.90;;;;;;5032434;28;20692;-60
2020/12/28 03:19:59;;;;;;;2.13;1.20;;;1.50;99.90;;;;;;5031034;28;20219;-60
2020/12/28 03:22:25;;;;;;;1.30;1.20;;;1.60;99.90;;;;;;5045330;28;20200;-63
2020/12/28 03:24:50;;;;;;;1.10;1.00;;;1.60;99.90;;;;;;5051368;28;20574;-61
2020/12/28 03:27:16;;;;;;;1.10;1.10;;;1.60;99.90;;;;;;5051012;28;20663;-60
2020/12/28 03:29:42;;;;;;;4.43;1.60;;;1.60;99.90;;;;;;5052439;28;20499;-60
2020/12/28 03:32:08;;;;;;;1.23;1.13;;;1.60;99.90;;;;;;5050279;28;20191;-59
2020/12/28 03:34:33;;;;;;;2.43;2.23;;;1.60;99.90;;;;;;5049225;28;20186;-62
2020/12/28 03:36:59;;;;;;;1.70;1.60;;;1.60;99.90;;;;;;5026614;28;20214;-60
2020/12/28 03:39:24;;;;;;;2.20;1.73;;;1.60;99.90;;;;;;5051654;28;20235;-60
2020/12/28 03:41:50;;;;;;;1.60;1.40;;;1.60;99.90;;;;;;5051229;28;20189;-61
2020/12/28 03:44:16;;;;;;;2.13;1.50;;;1.60;99.90;;;;;;5033249;28;20177;-61
2020/12/28 03:46:41;;;;;;;1.70;1.60;;;1.60;99.90;;;;;;5051429;28;20207;-63
2020/12/28 03:49:07;;;;;;;1.63;1.47;;;1.60;99.90;;;;;;5049948;28;20192;-60
2020/12/28 03:51:32;;;;;;;2.47;1.20;;;1.60;99.90;;;;;;5050409;28;20213;-60
2020/12/28 03:53:58;;;;;;;1.70;1.60;;;1.50;99.90;;;;;;5049966;28;20185;-60
2020/12/28 03:56:24;;;;;;;1.70;1.30;;;1.50;99.90;;;;;;5050001;28;20252;-61
2020/12/28 03:58:50;;;;;;;2.23;1.70;;;1.50;99.90;;;;;;5048037;28;20420;-60
2020/12/28 04:01:16;;;;;;;1.40;1.30;;;1.50;99.90;;;;;;5031627;28;20806;-65
2020/12/28 04:03:42;;;;;;;1.40;1.30;;;1.50;99.90;;;;;;5042612;28;20647;-61
2020/12/28 04:06:08;;;;;;;1.17;1.17;;;1.50;99.90;;;;;;5030105;28;21027;-61
2020/12/28 04:08:36;;;;;;;1.40;1.30;;;1.50;99.90;;;;;;5020069;28;20216;-62
2020/12/28 04:11:02;;;;;;;1.30;1.20;;;1.60;99.90;;;;;;5080322;22;20233;-59
2020/12/28 04:13:27;;;;;;;1.50;1.40;;;1.60;99.90;;;;;;5052223;28;20978;-59
2020/12/28 04:15:53;;;;;;;2.03;1.60;;;1.60;99.90;;;;;;5087033;28;20175;-59
2020/12/28 04:18:18;;;;;;;11.67;5.93;;;1.70;99.90;;;;;;5084267;28;20257;-59
2020/12/28 04:20:45;;;;;;;7.77;4.80;;;1.60;99.90;;;;;;5055541;28;20211;-59
2020/12/28 04:23:11;;;;;;;5.33;3.47;;;1.60;99.90;;;;;;5067444;28;20185;-60
2020/12/28 04:25:36;;;;;;;2.90;1.90;;;1.60;99.90;;;;;;5071342;28;20454;-59
2020/12/28 04:28:02;;;;;;;2.80;1.40;;;1.60;99.90;;;;;;5068073;28;20439;-59
2020/12/28 04:30:28;;;;;;;1.50;1.40;;;1.60;99.90;;;;;;5070666;28;20177;-58
2020/12/28 04:32:53;;;;;;;1.20;1.20;;;1.60;99.90;;;;;;5069902;28;20212;-59
2020/12/28 04:35:21;;;;;;;1.33;1.23;;;1.50;99.90;;;;;;5049351;28;20224;-59
2020/12/28 04:37:47;;;;;;;1.60;1.50;;;1.50;99.90;;;;;;5059606;28;20185;-60
2020/12/28 04:40:12;;;;;;;1.40;1.30;;;1.50;99.90;;;;;;5071287;28;20415;-58
2020/12/28 04:42:42;;;;;;;1.27;1.17;;;1.50;99.90;;;;;;5069936;28;20210;-59
2020/12/28 04:45:10;;;;;;;5.50;1.23;;;1.50;99.90;;;;;;5064482;28;21000;-59
2020/12/28 04:47:36;;;;;;;1.10;1.10;;;1.40;99.90;;;;;;5055413;28;20452;-58
2020/12/28 04:50:05;;;;;;;1.43;1.27;;;1.40;99.90;;;;;;5070560;28;20423;-58
2020/12/28 04:52:31;;;;;;;1.40;1.30;;;1.40;99.90;;;;;;5050671;28;21304;-58
2020/12/28 04:54:57;;;;;;;3.03;1.20;;;1.40;99.90;;;;;;5068018;28;20452;-59
2020/12/28 04:57:23;;;;;;;1.63;1.50;;;1.40;99.90;;;;;;5062440;28;20786;-58
2020/12/28 04:59:55;;;;;;;1.37;1.20;;;1.40;99.90;;;;;;5056989;28;20441;-60
2020/12/28 05:02:25;;;;;;;3.00;1.60;;;1.40;99.90;;;;;;5062090;28;20204;-58
2020/12/28 05:04:51;;;;;;;1.57;1.47;;;1.30;99.90;;;;;;5067679;28;20459;-60
2020/12/28 05:07:17;;;;;;;1.60;1.50;;;1.30;99.90;;;;;;5071438;28;20875;-60
2020/12/28 05:09:42;;;;;;;2.70;2.00;;;1.30;99.90;;;;;;5057945;28;20510;-60
2020/12/28 05:12:10;;;;;;;1.67;1.57;;;1.30;99.90;;;;;;5056715;28;20676;-60
2020/12/28 05:14:36;;;;;;;3.00;1.73;;;1.30;99.90;;;;;;5057038;28;20184;-58
2020/12/28 05:17:05;;;;;;;1.63;1.53;;;1.30;99.90;;;;;;5075419;28;20476;-60
2020/12/28 05:19:33;;;;;;;2.10;1.90;;;1.30;99.90;;;;;;5061347;28;20428;-59
2020/12/28 05:21:59;;;;;;;1.73;1.63;;;1.30;99.90;;;;;;5074325;28;20455;-58
2020/12/28 05:24:27;;;;;;;3.93;1.83;;;1.30;99.90;;;;;;5072218;28;20430;-58
2020/12/28 05:26:55;;;;;;;3.63;2.00;;;1.20;99.90;;;;;;5068323;28;20184;-60
2020/12/28 05:29:23;;;;;;;1.77;1.67;;;1.20;99.90;;;;;;5097866;28;20866;-59
2020/12/28 05:31:51;;;;;;;1.67;1.57;;;1.20;99.90;;;;;;5097369;28;20416;-59
2020/12/28 05:34:25;;;;;;;2.07;1.90;;;1.20;99.90;;;;;;5090791;28;20438;-59
2020/12/28 05:36:53;;;;;;;2.00;1.90;;;1.20;99.90;;;;;;5085135;28;20472;-60
2020/12/28 05:39:23;;;;;;;2.27;2.07;;;1.20;99.90;;;;;;5097054;28;20490;-59
2020/12/28 05:42:12;;;;;;;2.40;2.20;;;1.20;99.90;;;;;;5096535;28;20428;-59
2020/12/28 05:44:43;;;;;;;2.20;2.10;;;1.20;99.90;;;;;;5072782;28;20462;-58
2020/12/28 05:47:16;;;;;;;7.87;2.53;;;1.20;99.90;;;;;;5052739;28;20430;-57
2020/12/28 05:49:43;;;;;;;2.70;2.50;;;1.20;99.90;;;;;;5075381;28;20405;-59
2020/12/28 05:52:11;;;;;;;2.57;2.37;;;1.20;99.90;;;;;;5070389;28;20458;-58
2020/12/28 05:54:37;;;;;;;2.87;2.47;;;1.20;99.90;;;;;;5072358;28;20495;-58
2020/12/28 05:57:05;;;;;;;3.37;3.07;;;1.20;99.90;;;;;;5075576;28;20411;-59
2020/12/28 05:59:32;;;;;;;3.13;2.70;;;1.20;99.90;;;;;;5068584;28;20462;-58
2020/12/28 06:01:59;;;;;;;7.17;3.00;;;1.20;99.90;;;;;;5068440;28;20504;-58
2020/12/28 06:04:25;;;;;;;2.43;2.23;;;1.20;99.90;;;;;;5073629;28;20803;-58
2020/12/28 06:07:00;;;;;;;2.53;2.33;;;1.20;99.90;;;;;;5069178;28;20437;-58
2020/12/28 06:09:26;;;;;;;2.50;2.20;;;1.10;99.90;;;;;;5070995;28;20430;-58
2020/12/28 06:12:02;;;;;;;3.20;2.90;;;1.20;99.90;;;;;;5088226;28;20479;-58
2020/12/28 06:14:34;;;;;;;2.40;2.20;;;1.20;99.90;;;;;;5082243;28;20430;-58
2020/12/28 06:17:07;;;;;;;3.27;2.80;;;1.20;99.90;;;;;;5073611;28;20436;-58
2020/12/28 06:19:34;;;;;;;3.97;3.30;;;1.10;99.90;;;;;;5070304;28;20465;-58
2020/12/28 06:21:59;;;;;;;3.00;2.80;;;1.20;99.90;;;;;;5072707;28;20448;-59
2020/12/28 06:24:31;;;;;;;3.27;2.97;;;1.20;99.90;;;;;;5070980;28;20517;-58
2020/12/28 06:27:05;;;;;;;3.80;3.17;;;1.20;99.90;;;;;;5064021;28;20465;-58
2020/12/28 06:29:32;;;;;;;14.03;3.23;;;1.20;99.90;;;;;;5070329;28;20414;-59
2020/12/28 06:32:16;;;;;;;2.60;2.40;;;1.20;99.90;;;;;;5073213;28;20438;-59
2020/12/28 06:34:44;;;;;;;6.20;3.07;;;1.20;99.90;;;;;;5054635;28;20435;-58
2020/12/28 06:37:10;;;;;;;4.37;3.80;;;1.20;99.90;;;;;;5057988;28;20958;-58
2020/12/28 06:39:36;;;;;;;4.80;3.40;;;1.30;99.90;;;;;;5093545;28;20454;-59
2020/12/28 06:42:12;;;;;;;3.40;3.03;;;1.30;99.90;;;;;;5052425;28;20450;-58
2020/12/28 06:44:39;;;;;;;10.20;5.67;;;1.30;99.90;;;;;;5071445;28;20176;-57
2020/12/28 06:47:22;;;;;;;9.30;6.13;;;1.30;99.90;;;;;;5062217;28;20438;-59
2020/12/28 06:49:48;;;;;;;18.00;8.90;;;1.30;99.90;;;;;;5071412;28;20439;-57
2020/12/28 06:52:15;;;;;;;8.90;5.97;;;1.30;99.90;;;;;;5043351;28;20463;-58
2020/12/28 06:54:41;;;;;;;7.27;4.00;;;1.30;99.90;;;;;;5043555;28;20431;-59
2020/12/28 06:57:07;;;;;;;8.83;5.13;;;1.30;99.90;;;;;;5071556;28;20449;-58
2020/12/28 06:59:34;;;;;;;7.97;5.40;;;1.30;99.90;;;;;;5075747;28;20419;-58
2020/12/28 07:02:00;;;;;;;11.73;7.33;;;1.30;99.90;;;;;;5069120;28;20450;-59
2020/12/28 07:04:27;;;;;;;15.70;9.10;;;1.30;99.90;;;;;;5053204;28;20421;-58
2020/12/28 07:07:03;;;;;;;13.63;8.67;;;1.30;99.90;;;;;;5079764;28;20434;-58
2020/12/28 07:09:29;;;;;;;14.00;8.03;;;1.30;99.90;;;;;;5084160;28;20497;-57
2020/12/28 07:11:55;;;;;;;13.60;8.10;;;1.30;99.90;;;;;;5082148;28;20510;-58
2020/12/28 07:14:21;;;;;;;14.60;7.70;;;1.30;99.90;;;;;;5096605;28;20846;-57
2020/12/28 07:16:56;;;;;;;11.33;7.37;;;1.30;99.90;;;;;;5070802;28;20180;-58
2020/12/28 07:19:23;;;;;;;11.80;7.57;;;1.30;99.90;;;;;;5051593;28;20438;-58
2020/12/28 07:21:49;;;;;;;11.20;7.57;;;1.30;99.90;;;;;;5064057;28;20986;-60
2020/12/28 07:24:15;;;;;;;10.30;7.53;;;1.30;99.90;;;;;;5069187;28;20522;-58
2020/12/28 07:26:43;;;;;;;12.10;8.13;;;1.30;99.90;;;;;;5073017;28;20541;-58
2020/12/28 07:29:16;;;;;;;14.10;7.63;;;1.30;99.90;;;;;;5062883;28;20171;-58
2020/12/28 07:31:43;;;;;;;12.10;7.90;;;1.30;99.90;;;;;;5073777;28;20507;-58
2020/12/28 07:34:13;;;;;;;11.73;8.17;;;1.30;99.90;;;;;;5074980;28;20502;-58
2020/12/28 07:36:44;;;;;;;10.67;6.87;;;1.30;99.90;;;;;;5062847;28;20525;-59
2020/12/28 07:39:11;;;;;;;9.43;5.50;;;1.30;99.90;;;;;;5051846;28;20421;-58
2020/12/28 07:41:43;;;;;;;9.47;4.87;;;1.30;99.90;;;;;;5070901;27;20597;-59
2020/12/28 07:44:15;;;;;;;5.80;4.50;;;1.30;99.90;;;;;;5063778;28;20430;-60
2020/12/28 07:46:54;;;;;;;9.33;4.57;;;1.30;99.90;;;;;;5067285;28;20214;-59
2020/12/28 07:49:25;;;;;;;6.53;4.93;;;1.30;99.90;;;;;;5059292;28;20431;-60
2020/12/28 07:52:14;;;;;;;7.53;5.60;;;1.30;99.90;;;;;;5047122;28;20542;-60
2020/12/28 07:54:48;;;;;;;15.27;7.50;;;1.40;99.90;;;;;;5047812;28;20423;-60
2020/12/28 07:57:30;;;;;;;9.13;7.03;;;1.40;99.90;;;;;;5049151;28;20435;-60
2020/12/28 07:59:56;;;;;;;12.70;8.53;;;1.40;99.90;;;;;;5048970;28;20584;-59
2020/12/28 08:02:52;;;;;;;18.40;12.47;;;1.40;99.90;;;;;;5053062;28;20829;-59
2020/12/28 08:05:22;;;;;;;22.13;12.47;;;1.40;99.90;;;;;;5054213;28;20196;-59
2020/12/28 08:07:48;;;;;;;18.70;11.70;;;1.50;99.90;;;;;;5050828;28;20515;-60
2020/12/28 08:10:15;;;;;;;15.67;9.90;;;1.40;99.90;;;;;;5066942;28;20455;-60
2020/12/28 08:12:51;;;;;;;17.43;10.47;;;1.50;99.90;;;;;;5061969;28;20455;-61
2020/12/28 08:15:32;;;;;;;15.67;9.47;;;1.50;99.90;;;;;;5065313;28;20956;-59
2020/12/28 08:18:07;;;;;;;16.17;10.30;;;1.50;99.90;;;;;;5055847;28;20417;-60
2020/12/28 08:20:33;;;;;;;15.23;10.13;;;1.50;99.90;;;;;;5048901;28;20442;-60
2020/12/28 08:23:01;;;;;;;17.17;10.50;;;1.50;99.90;;;;;;5049344;28;20815;-59
2020/12/28 08:25:28;;;;;;;13.90;9.30;;;1.50;99.90;;;;;;5054910;28;20429;-62
2020/12/28 08:27:59;;;;;;;9.23;6.33;;;1.50;99.90;;;;;;5047431;28;20435;-60
2020/12/28 08:30:26;;;;;;;10.20;5.70;;;1.50;99.90;;;;;;5059455;28;20508;-60
2020/12/28 08:32:52;;;;;;;6.40;5.00;;;1.50;99.90;;;;;;5055594;28;20463;-59
2020/12/28 08:35:18;;;;;;;6.77;5.17;;;1.40;99.90;;;;;;5057210;28;20434;-59
2020/12/28 08:37:49;;;;;;;7.73;5.97;;;1.40;99.90;;;;;;5050229;28;20994;-60
2020/12/28 08:40:16;;;;;;;10.80;6.77;;;1.40;99.90;;;;;;5051262;28;20201;-60
2020/12/28 08:42:42;;;;;;;9.67;7.10;;;1.40;99.90;;;;;;5053868;28;20448;-60
2020/12/28 08:45:08;;;;;;;10.17;6.70;;;1.50;99.90;;;;;;5062856;28;21009;-62
2020/12/28 08:47:36;;;;;;;12.80;6.83;;;1.50;99.90;;;;;;5056601;28;20208;-61
2020/12/28 08:50:01;;;;;;;10.33;7.10;;;1.50;99.90;;;;;;5048648;28;20223;-61
2020/12/28 08:52:27;;;;;;;11.90;6.93;;;1.50;99.90;;;;;;5041557;28;20456;-60
2020/12/28 08:54:55;;;;;;;8.70;6.30;;;1.60;99.90;;;;;;5043178;28;20175;-60
2020/12/28 08:57:31;;;;;;;10.47;6.27;;;1.60;99.90;;;;;;5042390;28;20189;-60
2020/12/28 08:59:59;;;;;;;9.17;6.20;;;1.60;99.90;;;;;;5048284;28;20445;-60
2020/12/28 09:02:26;;;;;;;10.53;7.23;;;1.60;99.90;;;;;;5036679;28;20525;-60
2020/12/28 09:04:57;;;;;;;16.63;10.57;;;1.60;99.90;;;;;;5034028;28;20428;-60
2020/12/28 09:07:24;;;;;;;17.50;10.70;;;1.60;99.90;;;;;;5034711;28;20475;-60
2020/12/28 09:09:50;;;;;;;15.23;8.80;;;1.60;99.90;;;;;;5040878;28;20495;-61
2020/12/28 09:12:17;;;;;;;11.63;7.37;;;1.60;99.90;;;;;;5045401;28;20468;-60
2020/12/28 09:14:43;;;;;;;11.67;7.50;;;1.60;99.90;;;;;;5039344;28;20514;-60
2020/12/28 09:17:09;;;;;;;12.50;8.80;;;1.70;99.90;;;;;;5038027;28;20428;-60
2020/12/28 09:19:35;;;;;;;14.80;8.63;;;1.70;99.90;;;;;;5042237;28;20436;-61
2020/12/28 09:22:01;;;;;;;9.17;6.63;;;1.70;99.90;;;;;;5038867;28;20863;-60
2020/12/28 09:24:27;;;;;;;9.27;6.23;;;1.70;99.90;;;;;;5040236;28;20207;-60
2020/12/28 09:26:59;;;;;;;8.40;4.20;;;1.70;99.90;;;;;;5044955;28;20431;-60
2020/12/28 09:29:25;;;;;;;8.73;6.17;;;1.70;99.90;;;;;;5033923;28;20186;-59
2020/12/28 09:31:50;;;;;;;11.07;7.03;;;1.80;99.90;;;;;;5039076;28;20455;-59
2020/12/28 09:34:16;;;;;;;10.50;7.27;;;1.80;99.90;;;;;;5034611;28;20442;-60
2020/12/28 09:36:42;;;;;;;11.60;7.20;;;1.80;99.90;;;;;;5036171;28;20527;-59
2020/12/28 09:39:08;;;;;;;10.03;7.07;;;1.80;99.90;;;;;;5043072;28;20280;-60
2020/12/28 09:41:33;;;;;;;11.77;7.80;;;1.80;99.90;;;;;;5041666;28;20218;-59
2020/12/28 09:43:59;;;;;;;12.47;8.40;;;1.80;99.90;;;;;;5031524;28;20212;-61
2020/12/28 09:46:24;;;;;;;10.83;7.63;;;1.80;99.90;;;;;;5034352;28;20193;-60
2020/12/28 09:48:50;;;;;;;18.53;9.20;;;1.80;99.90;;;;;;5038540;28;20230;-61
2020/12/28 09:51:17;;;;;;;9.93;6.83;;;1.80;99.90;;;;;;5042735;28;20709;-60
2020/12/28 09:53:46;;;;;;;7.93;5.83;;;1.90;99.90;;;;;;5041572;28;20185;-60
2020/12/28 09:56:11;;;;;;;8.47;5.57;;;1.90;99.90;;;;;;5035529;28;20432;-60
2020/12/28 09:58:37;;;;;;;6.90;5.50;;;1.90;99.90;;;;;;5027585;28;20442;-60
2020/12/28 10:01:08;;;;;;;7.30;5.23;;;1.90;99.90;;;;;;5035559;28;20214;-60
2020/12/28 10:03:36;;;;;;;7.10;4.90;;;1.90;99.90;;;;;;5037085;28;20446;-59
2020/12/28 10:06:30;;;;;;;7.43;5.43;;;1.90;99.90;;;;;;5041367;28;20440;-59
2020/12/28 10:08:47;;;;;;;6.93;4.40;;;1.90;99.90;;;;;;5053326;28;20433;-58
2020/12/28 10:11:16;;;;;;;8.23;5.70;;;1.90;99.90;;;;;;5036426;28;20471;-59
2020/12/28 10:13:42;;;;;;;6.30;4.60;;;1.90;99.90;;;;;;5046075;22;20226;-61
2020/12/28 10:16:07;;;;;;;6.07;5.10;;;1.80;99.90;;;;;;5030679;28;20420;-62
2020/12/28 10:18:39;;;;;;;6.53;4.37;;;1.90;99.90;;;;;;5031567;28;20210;-61
2020/12/28 10:21:07;;;;;;;7.47;5.73;;;1.80;99.90;;;;;;5031024;28;20433;-59
2020/12/28 10:23:33;;;;;;;6.47;5.10;;;1.80;99.90;;;;;;5019920;28;20460;-62
2020/12/28 10:25:58;;;;;;;8.90;4.87;;;1.90;99.90;;;;;;5011212;28;20525;-61
2020/12/28 10:28:24;;;;;;;6.30;5.30;;;1.90;99.90;;;;;;5009300;28;20206;-61
2020/12/28 10:30:49;;;;;;;8.50;5.70;;;1.90;99.90;;;;;;5009245;28;20642;-60
2020/12/28 10:33:15;;;;;;;7.40;5.90;;;1.90;99.90;;;;;;5011001;28;20198;-58
2020/12/28 10:35:41;;;;;;;9.87;5.97;;;1.90;99.90;;;;;;5005524;28;20893;-61
2020/12/28 10:38:08;;;;;;;11.57;6.60;;;1.90;99.90;;;;;;5009959;28;20429;-62
2020/12/28 10:40:33;;;;;;;7.33;5.87;;;2.00;99.90;;;;;;5009710;28;20190;-66
2020/12/28 10:42:59;;;;;;;6.10;4.27;;;2.00;99.90;;;;;;5006496;28;20446;-60
2020/12/28 10:45:25;;;;;;;6.57;4.90;;;2.00;99.90;;;;;;5006513;28;20177;-62
2020/12/28 10:47:51;;;;;;;6.30;4.80;;;1.90;99.90;;;;;;5011267;28;20195;-62
2020/12/28 10:50:17;;;;;;;8.73;6.17;;;1.90;99.90;;;;;;5012423;28;20193;-61
2020/12/28 10:52:43;;;;;;;8.43;5.90;;;2.00;99.90;;;;;;5005136;28;20429;-62
2020/12/28 10:55:09;;;;;;;9.20;6.03;;;2.00;99.90;;;;;;5009025;28;20515;-62
2020/12/28 10:57:34;;;;;;;7.97;6.40;;;1.90;99.90;;;;;;5007760;28;20187;-61
2020/12/28 11:00:00;;;;;;;7.20;5.43;;;1.90;99.90;;;;;;5010604;28;20233;-63
2020/12/28 11:02:26;;;;;;;11.13;5.83;;;1.90;99.90;;;;;;5007569;28;20212;-62
2020/12/28 11:04:51;;;;;;;8.73;6.03;;;1.80;99.90;;;;;;5010228;28;20878;-60
2020/12/28 11:07:17;;;;;;;8.57;6.47;;;1.80;99.90;;;;;;5010864;28;20186;-61
2020/12/28 11:09:42;;;;;;;7.93;5.97;;;1.80;99.90;;;;;;5008838;28;20733;-62
2020/12/28 11:12:08;;;;;;;10.10;7.00;;;1.80;99.90;;;;;;4994765;28;20279;-66
2020/12/28 11:14:34;;;;;;;11.43;8.20;;;1.70;99.90;;;;;;4996052;28;20261;-63
2020/12/28 11:17:03;;;;;;;11.63;7.43;;;1.70;99.90;;;;;;5004743;28;20457;-59
2020/12/28 11:19:30;;;;;;;9.57;7.10;;;1.70;99.90;;;;;;5006889;28;20906;-60
2020/12/28 11:21:55;;;;;;;9.07;6.33;;;1.70;99.90;;;;;;5007508;28;20434;-60
2020/12/28 11:24:21;;;;;;;7.50;5.23;;;1.70;99.90;;;;;;5007138;28;20888;-61
2020/12/28 11:26:48;;;;;;;15.30;7.80;;;1.80;99.90;;;;;;5008914;28;20244;-61
2020/12/28 11:29:14;;;;;;;11.20;6.67;;;1.80;99.90;;;;;;5005808;28;20438;-62
2020/12/28 11:31:40;;;;;;;10.53;6.60;;;1.80;99.90;;;;;;5004674;28;20466;-63
2020/12/28 11:34:05;;;;;;;6.10;3.93;;;1.80;99.90;;;;;;5007816;28;20792;-60
2020/12/28 11:36:32;;;;;;;6.43;4.20;;;1.80;99.90;;;;;;5004136;28;20573;-60
2020/12/28 11:38:58;;;;;;;6.87;4.60;;;1.80;99.90;;;;;;5008680;28;20436;-59
2020/12/28 11:41:24;;;;;;;6.70;5.20;;;1.80;99.90;;;;;;5008987;28;20453;-61
2020/12/28 11:43:51;;;;;;;4.73;3.93;;;1.80;99.90;;;;;;5000319;28;20557;-60
2020/12/28 11:46:17;;;;;;;6.77;4.67;;;1.80;99.90;;;;;;5002533;28;20844;-62
2020/12/28 11:48:42;;;;;;;4.70;4.17;;;1.80;99.90;;;;;;5004326;28;20444;-63
2020/12/28 11:51:09;;;;;;;4.13;3.47;;;1.80;99.90;;;;;;4993742;28;20213;-61
2020/12/28 11:53:36;;;;;;;6.57;4.17;;;1.80;99.90;;;;;;4995115;28;20281;-63
2020/12/28 11:56:03;;;;;;;10.70;5.70;;;1.80;99.90;;;;;;4992861;28;20440;-61
2020/12/28 11:58:31;;;;;;;7.03;5.20;;;1.80;99.90;;;;;;4996500;28;20465;-61
2020/12/28 12:00:57;;;;;;;9.33;5.53;;;1.80;99.90;;;;;;5000180;28;20506;-63
2020/12/28 12:03:23;;;;;;;5.87;4.40;;;1.90;99.90;;;;;;4999996;28;20523;-66
2020/12/28 12:05:49;;;;;;;3.80;3.40;;;2.00;99.90;;;;;;4994658;28;20445;-65
2020/12/28 12:08:15;;;;;;;3.10;2.60;;;2.00;99.90;;;;;;4993206;28;20450;-66
2020/12/28 12:10:42;;;;;;;2.23;2.03;;;2.10;99.90;;;;;;4999161;28;22391;-66
2020/12/28 12:13:07;;;;;;;1.50;1.40;;;2.10;99.90;;;;;;4995261;28;20448;-65
2020/12/28 12:15:33;;;;;;;1.43;1.33;;;2.20;99.90;;;;;;4992926;28;20242;-65
2020/12/28 12:17:59;;;;;;;2.13;1.63;;;2.20;99.90;;;;;;4995974;28;20184;-64
2020/12/28 12:20:24;;;;;;;3.50;1.87;;;2.20;99.90;;;;;;4995282;28;20202;-64
2020/12/28 12:22:50;;;;;;;1.60;1.50;;;2.20;99.90;;;;;;4995150;28;20206;-64
2020/12/28 12:25:16;;;;;;;1.57;1.47;;;2.20;99.90;;;;;;4997290;28;20210;-65
2020/12/28 12:27:41;;;;;;;2.50;1.57;;;2.20;99.90;;;;;;4993276;28;20704;-64
2020/12/28 12:30:09;;;;;;;1.60;1.50;;;2.20;99.90;;;;;;4998782;28;20994;-62
2020/12/28 12:32:35;;;;;;;1.67;1.53;;;2.20;99.90;;;;;;4994637;28;20179;-65
2020/12/28 12:35:00;;;;;;;1.80;1.70;;;2.20;99.90;;;;;;5002357;28;20490;-67
2020/12/28 12:37:26;;;;;;;2.07;1.60;;;2.20;99.90;;;;;;4996071;28;20171;-66
2020/12/28 12:39:52;;;;;;;2.10;1.80;;;2.10;99.90;;;;;;4996355;28;20194;-65
2020/12/28 12:42:17;;;;;;;2.00;1.90;;;2.20;99.90;;;;;;5000971;28;20283;-62
2020/12/28 12:44:44;;;;;;;3.53;1.90;;;2.20;99.90;;;;;;4997672;28;20235;-63
2020/12/28 12:47:10;;;;;;;2.40;1.80;;;2.10;99.90;;;;;;5000611;28;20240;-65
2020/12/28 12:49:36;;;;;;;3.20;2.10;;;2.20;99.90;;;;;;4996823;28;20525;-66
2020/12/28 12:52:18;;;;;;;3.13;2.23;;;2.10;99.90;;;;;;5006202;28;21109;-65
2020/12/28 12:54:45;;;;;;;3.50;2.83;;;2.20;99.90;;;;;;4999217;28;20202;-63
2020/12/28 12:57:11;;;;;;;7.60;3.90;;;2.10;99.90;;;;;;5004223;28;20814;-67